createdAt,value
2018-10-16T00:00:16.241Z,73.67
2018-10-16T00:01:16.171Z,73.60
2018-10-16T00:02:16.161Z,73.77
2018-10-16T00:03:16.292Z,73.77
2018-10-16T00:04:16.140Z,74.08
2018-10-16T00:05:16.129Z,74.18
2018-10-16T00:06:16.175Z,74.28
2018-10-16T00:07:16.107Z,74.11
2018-10-16T00:08:16.102Z,74.18
2018-10-16T00:09:16.077Z,73.81
2018-10-16T00:10:16.066Z,74.18
2018-10-16T00:11:16.067Z,73.88
2018-10-16T00:12:16.083Z,74.18
2018-10-16T00:13:16.063Z,74.42
2018-10-16T00:14:16.033Z,74.42
2018-10-16T00:15:16.010Z,74.62
2018-10-16T00:16:16.018Z,74.62
2018-10-16T00:17:15.995Z,74.83
2018-10-16T00:18:16.043Z,74.83
2018-10-16T00:19:15.968Z,74.83
2018-10-16T00:20:16.013Z,74.32
2018-10-16T00:21:15.954Z,74.62
2018-10-16T00:22:15.940Z,74.83
2018-10-16T00:23:15.934Z,74.83
2018-10-16T00:24:15.974Z,74.42
2018-10-16T00:25:15.911Z,74.42
2018-10-16T00:26:15.900Z,74.83
2018-10-16T00:27:15.884Z,75.07
2018-10-16T00:28:15.870Z,74.76
2018-10-16T00:29:15.879Z,74.96
2018-10-16T00:30:15.892Z,75.07
2018-10-16T00:31:15.847Z,74.86
2018-10-16T00:32:15.823Z,75.07
2018-10-16T00:33:15.817Z,75.37
2018-10-16T00:34:15.801Z,75.27
2018-10-16T00:35:15.817Z,75.68
2018-10-16T00:36:15.850Z,75.68
2018-10-16T00:37:15.777Z,75.71
2018-10-16T00:38:15.760Z,75.68
2018-10-16T00:39:15.756Z,75.37
2018-10-16T00:40:15.740Z,75.68
2018-10-16T00:41:15.765Z,75.57
2018-10-16T00:42:15.760Z,75.78
2018-10-16T00:43:15.724Z,75.68
2018-10-16T00:44:15.699Z,75.78
2018-10-16T00:45:15.687Z,75.78
2018-10-16T00:46:15.685Z,76.12
2018-10-16T00:47:15.665Z,75.82
2018-10-16T00:48:15.700Z,76.02
2018-10-16T00:49:15.657Z,75.78
2018-10-16T00:50:15.629Z,75.82
2018-10-16T00:51:15.628Z,75.92
2018-10-16T00:52:15.614Z,76.12
2018-10-16T00:53:15.596Z,76.22
2018-10-16T00:54:15.641Z,76.12
2018-10-16T00:55:15.651Z,76.12
2018-10-16T00:56:15.564Z,76.12
2018-10-16T00:57:15.552Z,76.12
2018-10-16T00:58:15.545Z,75.92
2018-10-16T00:59:15.528Z,75.71
2018-10-16T01:00:15.570Z,76.02
2018-10-16T01:01:15.512Z,75.78
2018-10-16T01:02:15.519Z,75.92
2018-10-16T01:03:15.502Z,75.92
2018-10-16T01:04:15.476Z,76.22
2018-10-16T01:05:15.480Z,76.43
2018-10-16T01:06:15.524Z,76.12
2018-10-16T01:07:15.445Z,75.71
2018-10-16T01:08:15.444Z,75.82
2018-10-16T01:09:15.432Z,76.32
2018-10-16T01:10:15.406Z,76.22
2018-10-16T01:11:15.404Z,75.82
2018-10-16T01:12:15.478Z,76.02
2018-10-16T01:13:15.402Z,76.02
2018-10-16T01:14:15.374Z,76.22
2018-10-16T01:15:15.351Z,76.43
2018-10-16T01:16:15.343Z,76.36
2018-10-16T01:17:15.345Z,76.46
2018-10-16T01:18:15.371Z,76.46
2018-10-16T01:19:15.313Z,76.56
2018-10-16T01:20:15.305Z,76.56
2018-10-16T01:21:15.297Z,76.46
2018-10-16T01:22:15.279Z,76.56
2018-10-16T01:23:15.308Z,76.26
2018-10-16T01:24:15.290Z,76.56
2018-10-16T01:25:15.250Z,76.90
2018-10-16T01:26:15.239Z,76.56
2018-10-16T01:27:15.231Z,76.77
2018-10-16T01:28:15.212Z,76.77
2018-10-16T01:29:15.221Z,77.01
2018-10-16T01:30:15.246Z,77.42
2018-10-16T01:31:15.182Z,76.77
2018-10-16T01:32:15.163Z,77.08
2018-10-16T01:33:15.158Z,77.62
2018-10-16T01:34:15.147Z,77.11
2018-10-16T01:35:15.163Z,77.72
2018-10-16T01:36:15.173Z,77.72
2018-10-16T01:37:15.118Z,77.72
2018-10-16T01:38:15.145Z,78.13
2018-10-16T01:39:15.091Z,77.83
2018-10-16T01:40:15.082Z,78.54
2018-10-16T01:41:15.087Z,78.13
2018-10-16T01:42:15.099Z,78.13
2018-10-16T01:43:15.062Z,77.72
2018-10-16T01:44:15.041Z,78.13
2018-10-16T01:45:15.055Z,77.97
2018-10-16T01:46:15.016Z,78.13
2018-10-16T01:47:15.003Z,78.07
2018-10-16T01:48:15.074Z,78.17
2018-10-16T01:49:14.979Z,77.97
2018-10-16T01:50:14.966Z,77.97
2018-10-16T01:51:14.961Z,77.97
2018-10-16T01:52:14.946Z,78.58
2018-10-16T01:53:14.938Z,79.29
2018-10-16T01:54:14.976Z,79.09
2018-10-16T01:55:14.966Z,78.88
2018-10-16T01:56:14.903Z,78.78
2018-10-16T01:57:14.892Z,78.99
2018-10-16T01:58:14.881Z,79.09
2018-10-16T01:59:14.877Z,79.43
2018-10-16T02:00:14.901Z,79.13
2018-10-16T02:01:14.887Z,79.64
2018-10-16T02:02:14.854Z,79.74
2018-10-16T02:03:14.831Z,79.64
2018-10-16T02:04:14.818Z,79.16
2018-10-16T02:05:14.814Z,79.47
2018-10-16T02:06:14.826Z,80.08
2018-10-16T02:07:14.817Z,80.60
2018-10-16T02:08:14.768Z,81.10
2018-10-16T02:09:14.764Z,80.90
2018-10-16T02:10:14.751Z,81.21
2018-10-16T02:11:14.742Z,80.90
2018-10-16T02:12:14.790Z,80.90
2018-10-16T02:13:14.724Z,80.80
2018-10-16T02:14:14.703Z,80.80
2018-10-16T02:15:14.695Z,80.90
2018-10-16T02:16:14.697Z,81.01
2018-10-16T02:17:14.674Z,80.69
2018-10-16T02:18:14.710Z,81.21
2018-10-16T02:19:14.709Z,80.80
2018-10-16T02:20:14.641Z,81.10
2018-10-16T02:21:14.638Z,81.10
2018-10-16T02:22:14.616Z,80.29
2018-10-16T02:23:14.607Z,80.08
2018-10-16T02:24:14.634Z,80.08
2018-10-16T02:25:14.616Z,80.49
2018-10-16T02:26:14.570Z,81.01
2018-10-16T02:27:14.566Z,80.39
2018-10-16T02:28:14.551Z,80.49
2018-10-16T02:29:14.561Z,80.19
2018-10-16T02:30:14.574Z,80.46
2018-10-16T02:31:14.516Z,80.49
2018-10-16T02:32:14.539Z,80.46
2018-10-16T02:33:14.496Z,80.29
2018-10-16T02:34:14.500Z,80.15
2018-10-16T02:35:14.471Z,79.98
2018-10-16T02:36:14.522Z,79.33
2018-10-16T02:37:14.458Z,79.74
2018-10-16T02:38:14.439Z,80.05
2018-10-16T02:39:14.438Z,79.64
2018-10-16T02:40:14.416Z,79.68
2018-10-16T02:41:14.406Z,79.74
2018-10-16T02:42:14.440Z,79.27
2018-10-16T02:43:14.384Z,79.53
2018-10-16T02:44:14.381Z,79.23
2018-10-16T02:45:14.361Z,79.68
2018-10-16T02:46:14.350Z,79.53
2018-10-16T02:47:14.416Z,79.37
2018-10-16T02:48:14.390Z,79.94
2018-10-16T02:49:14.324Z,79.94
2018-10-16T02:50:14.322Z,79.88
2018-10-16T02:51:14.293Z,79.88
2018-10-16T02:52:14.300Z,79.84
2018-10-16T02:53:14.286Z,79.64
2018-10-16T02:54:14.316Z,79.74
2018-10-16T02:55:14.261Z,80.08
2018-10-16T02:56:14.245Z,79.84
2018-10-16T02:57:14.232Z,79.98
2018-10-16T02:58:14.234Z,80.05
2018-10-16T02:59:14.252Z,80.19
2018-10-16T03:00:14.249Z,79.84
2018-10-16T03:01:14.201Z,80.08
2018-10-16T03:02:14.174Z,79.88
2018-10-16T03:03:14.163Z,80.39
2018-10-16T03:04:14.160Z,80.39
2018-10-16T03:05:14.144Z,79.78
2018-10-16T03:06:14.187Z,80.29
2018-10-16T03:07:14.115Z,79.78
2018-10-16T03:08:14.114Z,79.68
2018-10-16T03:09:14.121Z,81.31
2018-10-16T03:10:14.092Z,80.08
2018-10-16T03:11:14.075Z,79.88
2018-10-16T03:12:14.105Z,79.88
2018-10-16T03:13:14.051Z,80.15
2018-10-16T03:14:14.037Z,80.29
2018-10-16T03:15:14.031Z,80.15
2018-10-16T03:16:14.025Z,79.88
2018-10-16T03:17:14.007Z,79.78
2018-10-16T03:18:14.035Z,80.39
2018-10-16T03:19:13.981Z,79.88
2018-10-16T03:20:14.027Z,79.78
2018-10-16T03:21:13.962Z,80.08
2018-10-16T03:22:13.977Z,80.29
2018-10-16T03:23:13.937Z,80.19
2018-10-16T03:24:13.967Z,80.29
2018-10-16T03:25:13.916Z,81.31
2018-10-16T03:26:13.914Z,80.94
2018-10-16T03:27:13.901Z,80.80
2018-10-16T03:28:13.886Z,80.80
2018-10-16T03:29:13.878Z,81.10
2018-10-16T03:30:13.904Z,80.80
2018-10-16T03:31:13.846Z,80.83
2018-10-16T03:32:13.840Z,81.56
2018-10-16T03:33:13.823Z,81.31
2018-10-16T03:34:13.810Z,81.96
2018-10-16T03:35:13.820Z,81.76
2018-10-16T03:36:13.842Z,82.37
2018-10-16T03:37:13.785Z,82.17
2018-10-16T03:38:13.770Z,82.37
2018-10-16T03:39:13.759Z,82.48
2018-10-16T03:40:13.745Z,82.68
2018-10-16T03:41:13.755Z,82.48
2018-10-16T03:42:13.779Z,82.37
2018-10-16T03:43:13.716Z,81.96
2018-10-16T03:44:13.700Z,82.27
2018-10-16T03:45:13.715Z,82.37
2018-10-16T03:46:13.684Z,81.24
2018-10-16T03:47:13.684Z,81.65
2018-10-16T03:48:13.709Z,80.83
2018-10-16T03:49:13.644Z,80.80
2018-10-16T03:50:13.633Z,81.01
2018-10-16T03:51:13.625Z,81.04
2018-10-16T03:52:13.611Z,81.15
2018-10-16T03:53:13.605Z,80.80
2018-10-16T03:54:13.639Z,81.01
2018-10-16T03:55:13.584Z,80.80
2018-10-16T03:56:13.574Z,80.90
2018-10-16T03:57:13.649Z,80.80
2018-10-16T03:58:13.547Z,81.01
2018-10-16T03:59:13.539Z,81.31
2018-10-16T04:00:13.594Z,81.10
2018-10-16T04:01:13.525Z,81.01
2018-10-16T04:02:13.499Z,81.72
2018-10-16T04:03:13.677Z,81.21
2018-10-16T04:04:13.528Z,82.23
2018-10-16T04:05:13.532Z,81.04
2018-10-16T04:06:13.527Z,81.31
2018-10-16T04:07:13.464Z,81.96
2018-10-16T04:08:13.434Z,81.72
2018-10-16T04:09:13.439Z,81.93
2018-10-16T04:10:13.415Z,82.03
2018-10-16T04:11:13.405Z,81.82
2018-10-16T04:12:13.442Z,82.23
2018-10-16T04:13:13.384Z,81.41
2018-10-16T04:14:13.367Z,81.21
2018-10-16T04:15:13.361Z,81.41
2018-10-16T04:16:13.361Z,81.10
2018-10-16T04:17:13.356Z,81.72
2018-10-16T04:18:13.372Z,80.90
2018-10-16T04:19:13.319Z,80.90
2018-10-16T04:20:13.307Z,81.17
2018-10-16T04:21:13.308Z,80.97
2018-10-16T04:22:13.313Z,81.31
2018-10-16T04:23:13.279Z,81.07
2018-10-16T04:24:13.319Z,81.68
2018-10-16T04:25:13.246Z,80.97
2018-10-16T04:26:13.244Z,81.79
2018-10-16T04:27:13.243Z,81.38
2018-10-16T04:28:13.212Z,81.48
2018-10-16T04:29:13.256Z,81.07
2018-10-16T04:30:13.237Z,81.17
2018-10-16T04:31:13.214Z,81.54
2018-10-16T04:32:13.174Z,81.27
2018-10-16T04:33:13.158Z,80.87
2018-10-16T04:34:13.147Z,80.83
2018-10-16T04:35:13.135Z,80.93
2018-10-16T04:36:13.161Z,80.83
2018-10-16T04:37:13.113Z,80.93
2018-10-16T04:38:13.123Z,80.97
2018-10-16T04:39:13.090Z,80.93
2018-10-16T04:40:13.079Z,80.97
2018-10-16T04:41:13.069Z,80.93
2018-10-16T04:42:13.109Z,81.13
2018-10-16T04:43:13.053Z,81.13
2018-10-16T04:44:13.036Z,81.03
2018-10-16T04:45:13.090Z,80.73
2018-10-16T04:46:13.018Z,81.03
2018-10-16T04:47:13.009Z,80.93
2018-10-16T04:48:13.031Z,81.17
2018-10-16T04:49:12.984Z,80.32
2018-10-16T04:50:13.011Z,80.11
2018-10-16T04:51:12.960Z,79.80
2018-10-16T04:52:12.948Z,79.80
2018-10-16T04:53:12.936Z,79.46
2018-10-16T04:54:12.974Z,79.57
2018-10-16T04:55:12.959Z,79.46
2018-10-16T04:56:12.912Z,79.36
2018-10-16T04:57:12.905Z,79.57
2018-10-16T04:58:12.885Z,78.85
2018-10-16T04:59:12.869Z,79.25
2018-10-16T05:00:12.896Z,79.46
2018-10-16T05:01:12.847Z,78.85
2018-10-16T05:02:12.835Z,79.16
2018-10-16T05:03:12.842Z,79.05
2018-10-16T05:04:12.882Z,79.66
2018-10-16T05:05:12.802Z,78.85
2018-10-16T05:06:12.843Z,78.95
2018-10-16T05:07:12.781Z,79.57
2018-10-16T05:08:12.776Z,79.25
2018-10-16T05:09:12.774Z,79.46
2018-10-16T05:10:12.750Z,78.54
2018-10-16T05:11:12.738Z,78.54
2018-10-16T05:12:12.760Z,79.25
2018-10-16T05:13:12.794Z,79.36
2018-10-16T05:14:12.711Z,79.25
2018-10-16T05:15:12.725Z,79.46
2018-10-16T05:16:12.688Z,79.46
2018-10-16T05:17:12.671Z,80.38
2018-10-16T05:18:12.723Z,80.32
2018-10-16T05:19:12.743Z,80.42
2018-10-16T05:20:12.697Z,80.83
2018-10-16T05:21:12.625Z,80.87
2018-10-16T05:22:12.644Z,81.07
2018-10-16T05:23:12.616Z,80.97
2018-10-16T05:24:12.655Z,81.07
2018-10-16T05:25:12.581Z,82.29
2018-10-16T05:26:12.572Z,81.93
2018-10-16T05:27:12.572Z,81.88
2018-10-16T05:28:12.701Z,81.68
2018-10-16T05:29:12.632Z,81.27
2018-10-16T05:30:12.626Z,80.76
2018-10-16T05:31:12.571Z,80.83
2018-10-16T05:32:12.520Z,81.03
2018-10-16T05:33:12.533Z,81.07
2018-10-16T05:34:12.499Z,80.83
2018-10-16T05:35:12.487Z,80.93
2018-10-16T05:36:12.532Z,81.13
2018-10-16T05:37:12.458Z,80.11
2018-10-16T05:38:12.459Z,80.93
2018-10-16T05:39:12.508Z,80.93
2018-10-16T05:40:12.427Z,80.97
2018-10-16T05:41:12.414Z,81.27
2018-10-16T05:42:12.448Z,81.13
2018-10-16T05:43:12.396Z,81.03
2018-10-16T05:44:12.382Z,80.87
2018-10-16T05:45:12.368Z,81.44
2018-10-16T05:46:12.397Z,81.27
2018-10-16T05:47:12.350Z,81.07
2018-10-16T05:48:12.385Z,80.87
2018-10-16T05:49:12.324Z,80.76
2018-10-16T05:50:12.324Z,80.97
2018-10-16T05:51:12.317Z,80.66
2018-10-16T05:52:12.284Z,80.87
2018-10-16T05:53:12.280Z,80.97
2018-10-16T05:54:12.304Z,80.97
2018-10-16T05:55:12.251Z,80.87
2018-10-16T05:56:12.249Z,81.48
2018-10-16T05:57:12.241Z,82.40
2018-10-16T05:58:12.224Z,82.40
2018-10-16T05:59:12.213Z,82.29
2018-10-16T06:00:12.266Z,83.11
2018-10-16T06:01:12.193Z,82.75
2018-10-16T06:02:12.184Z,82.91
2018-10-16T06:03:12.171Z,83.01
2018-10-16T06:04:12.158Z,82.70
2018-10-16T06:05:12.166Z,83.11
2018-10-16T06:06:12.198Z,83.22
2018-10-16T06:07:12.158Z,82.75
2018-10-16T06:08:12.117Z,83.15
2018-10-16T06:09:12.107Z,83.46
2018-10-16T06:10:12.139Z,83.11
2018-10-16T06:11:12.086Z,83.15
2018-10-16T06:12:12.142Z,83.46
2018-10-16T06:13:12.059Z,83.05
2018-10-16T06:14:12.046Z,83.76
2018-10-16T06:15:12.044Z,83.87
2018-10-16T06:16:12.096Z,83.56
2018-10-16T06:17:12.015Z,83.66
2018-10-16T06:18:12.043Z,83.76
2018-10-16T06:19:11.995Z,83.56
2018-10-16T06:20:11.980Z,83.66
2018-10-16T06:21:11.995Z,83.56
2018-10-16T06:22:12.028Z,83.66
2018-10-16T06:23:11.949Z,82.75
2018-10-16T06:24:12.016Z,82.95
2018-10-16T06:25:11.924Z,83.11
2018-10-16T06:26:11.918Z,83.46
2018-10-16T06:27:11.898Z,83.01
2018-10-16T06:28:11.886Z,82.81
2018-10-16T06:29:11.887Z,82.81
2018-10-16T06:30:11.974Z,82.70
2018-10-16T06:31:11.856Z,82.81
2018-10-16T06:32:11.844Z,81.65
2018-10-16T06:33:11.885Z,81.99
2018-10-16T06:34:11.842Z,81.34
2018-10-16T06:35:11.815Z,81.99
2018-10-16T06:36:11.839Z,81.95
2018-10-16T06:37:11.793Z,81.99
2018-10-16T06:38:11.804Z,81.13
2018-10-16T06:39:11.769Z,81.34
2018-10-16T06:40:11.777Z,81.65
2018-10-16T06:41:11.838Z,80.93
2018-10-16T06:42:11.797Z,80.69
2018-10-16T06:43:11.739Z,80.69
2018-10-16T06:44:11.731Z,80.69
2018-10-16T06:45:11.733Z,80.69
2018-10-16T06:46:11.734Z,80.79
2018-10-16T06:47:11.733Z,81.05
2018-10-16T06:48:11.967Z,81.10
2018-10-16T06:49:11.673Z,81.71
2018-10-16T06:50:11.674Z,82.22
2018-10-16T06:51:11.653Z,82.93
2018-10-16T06:52:11.633Z,82.22
2018-10-16T06:53:11.695Z,82.77
2018-10-16T06:54:11.646Z,82.77
2018-10-16T06:55:11.684Z,82.46
2018-10-16T06:56:11.589Z,82.77
2018-10-16T06:57:11.609Z,82.46
2018-10-16T06:58:11.596Z,82.87
2018-10-16T06:59:11.553Z,81.85
2018-10-16T07:00:11.649Z,81.85
2018-10-16T07:01:11.545Z,82.26
2018-10-16T07:02:11.538Z,82.67
2018-10-16T07:03:11.504Z,82.26
2018-10-16T07:04:11.514Z,82.36
2018-10-16T07:05:11.542Z,82.87
2018-10-16T07:06:11.522Z,82.91
2018-10-16T07:07:11.515Z,83.18
2018-10-16T07:08:11.475Z,83.28
2018-10-16T07:09:11.439Z,83.18
2018-10-16T07:10:11.442Z,83.07
2018-10-16T07:11:11.440Z,82.63
2018-10-16T07:12:11.453Z,82.93
2018-10-16T07:13:11.394Z,83.48
2018-10-16T07:14:11.397Z,82.73
2018-10-16T07:15:11.390Z,82.73
2018-10-16T07:16:11.376Z,83.14
2018-10-16T07:17:11.351Z,83.24
2018-10-16T07:18:11.405Z,82.73
2018-10-16T07:19:11.360Z,83.04
2018-10-16T07:20:11.388Z,83.10
2018-10-16T07:21:11.336Z,82.49
2018-10-16T07:22:11.309Z,82.39
2018-10-16T07:23:11.375Z,82.18
2018-10-16T07:24:11.331Z,82.18
2018-10-16T07:25:11.264Z,81.98
2018-10-16T07:26:11.269Z,82.14
2018-10-16T07:27:11.265Z,81.12
2018-10-16T07:28:11.241Z,80.91
2018-10-16T07:29:11.260Z,80.57
2018-10-16T07:30:11.315Z,80.88
2018-10-16T07:31:11.206Z,80.94
2018-10-16T07:32:11.231Z,80.37
2018-10-16T07:33:11.175Z,80.07
2018-10-16T07:34:11.167Z,79.52
2018-10-16T07:35:11.169Z,79.62
2018-10-16T07:36:11.211Z,79.00
2018-10-16T07:37:11.144Z,79.11
2018-10-16T07:38:11.289Z,79.17
2018-10-16T07:39:11.124Z,79.27
2018-10-16T07:40:11.105Z,79.41
2018-10-16T07:41:11.096Z,78.56
2018-10-16T07:42:11.135Z,79.48
2018-10-16T07:43:11.105Z,78.60
2018-10-16T07:44:11.062Z,79.17
2018-10-16T07:45:11.063Z,79.27
2018-10-16T07:46:11.033Z,78.77
2018-10-16T07:47:11.096Z,78.60
2018-10-16T07:48:11.051Z,78.87
2018-10-16T07:49:11.000Z,78.56
2018-10-16T07:50:11.009Z,79.17
2018-10-16T07:51:10.996Z,78.97
2018-10-16T07:52:10.965Z,78.97
2018-10-16T07:53:10.949Z,79.17
2018-10-16T07:54:10.987Z,79.27
2018-10-16T07:55:10.929Z,79.17
2018-10-16T07:56:10.938Z,78.97
2018-10-16T07:57:11.058Z,78.56
2018-10-16T07:58:10.899Z,79.44
2018-10-16T07:59:10.913Z,78.42
2018-10-16T08:00:11.031Z,79.34
2018-10-16T08:01:10.864Z,79.24
2018-10-16T08:02:10.860Z,79.34
2018-10-16T08:03:10.889Z,79.34
2018-10-16T08:04:10.861Z,79.41
2018-10-16T08:05:10.827Z,79.54
2018-10-16T08:06:10.874Z,79.85
2018-10-16T08:07:10.801Z,79.41
2018-10-16T08:08:10.798Z,79.71
2018-10-16T08:09:10.788Z,80.02
2018-10-16T08:10:10.766Z,79.81
2018-10-16T08:11:10.835Z,79.61
2018-10-16T08:12:10.796Z,79.50
2018-10-16T08:13:10.740Z,79.37
2018-10-16T08:14:10.745Z,79.77
2018-10-16T08:15:10.708Z,79.37
2018-10-16T08:16:10.715Z,79.23
2018-10-16T08:17:10.755Z,79.33
2018-10-16T08:18:10.718Z,78.72
2018-10-16T08:19:10.670Z,78.17
2018-10-16T08:20:10.659Z,78.17
2018-10-16T08:21:10.662Z,77.67
2018-10-16T08:22:10.649Z,77.97
2018-10-16T08:23:10.617Z,77.56
2018-10-16T08:24:10.654Z,78.14
2018-10-16T08:25:10.603Z,77.63
2018-10-16T08:26:10.592Z,77.22
2018-10-16T08:27:10.632Z,76.37
2018-10-16T08:28:10.573Z,76.17
2018-10-16T08:29:10.575Z,76.44
2018-10-16T08:30:10.640Z,76.14
2018-10-16T08:31:10.625Z,76.20
2018-10-16T08:32:10.537Z,76.20
2018-10-16T08:33:10.504Z,76.14
2018-10-16T08:34:10.582Z,75.83
2018-10-16T08:35:10.515Z,75.90
2018-10-16T08:36:10.657Z,75.49
2018-10-16T08:37:10.537Z,75.79
2018-10-16T08:38:10.453Z,74.85
2018-10-16T08:39:10.446Z,75.22
2018-10-16T08:40:10.422Z,74.41
2018-10-16T08:41:10.424Z,74.37
2018-10-16T08:42:10.460Z,74.48
2018-10-16T08:43:10.408Z,73.46
2018-10-16T08:44:10.388Z,73.25
2018-10-16T08:45:10.441Z,73.12
2018-10-16T08:46:10.373Z,71.47
2018-10-16T08:47:10.367Z,71.06
2018-10-16T08:48:10.389Z,70.32
2018-10-16T08:49:10.328Z,70.32
2018-10-16T08:50:10.326Z,69.21
2018-10-16T08:51:10.316Z,69.41
2018-10-16T08:52:10.295Z,69.58
2018-10-16T08:53:10.283Z,68.47
2018-10-16T08:54:10.304Z,67.55
2018-10-16T08:55:10.382Z,66.85
2018-10-16T08:56:10.254Z,66.55
2018-10-16T08:57:10.243Z,66.21
2018-10-16T08:58:10.232Z,64.97
2018-10-16T08:59:10.224Z,65.37
2018-10-16T09:00:10.239Z,66.25
2018-10-16T09:01:10.207Z,65.84
2018-10-16T09:02:10.194Z,66.75
2018-10-16T09:03:10.192Z,68.24
2018-10-16T09:04:10.223Z,67.33
2018-10-16T09:05:10.158Z,67.73
2018-10-16T09:06:10.183Z,67.83
2018-10-16T09:07:10.161Z,66.89
2018-10-16T09:08:10.122Z,68.10
2018-10-16T09:09:10.172Z,67.10
2018-10-16T09:10:10.096Z,66.79
2018-10-16T09:11:10.078Z,65.75
2018-10-16T09:12:10.124Z,65.45
2018-10-16T09:13:10.136Z,65.55
2018-10-16T09:14:10.259Z,64.04
2018-10-16T09:15:10.037Z,63.93
2018-10-16T09:16:10.032Z,65.12
2018-10-16T09:17:10.043Z,64.31
2018-10-16T09:18:10.045Z,64.58
2018-10-16T09:19:10.030Z,64.58
2018-10-16T09:20:09.976Z,63.78
2018-10-16T09:21:09.965Z,64.98
2018-10-16T09:22:09.979Z,63.78
2018-10-16T09:23:09.978Z,62.16
2018-10-16T09:24:09.979Z,62.64
2018-10-16T09:25:10.054Z,62.24
2018-10-16T09:26:09.911Z,61.63
2018-10-16T09:27:09.910Z,60.72
2018-10-16T09:28:17.443Z,61.80
2018-10-16T09:29:18.539Z,61.10
2018-10-16T09:30:09.863Z,62.21
2018-10-16T09:31:09.938Z,61.50
2018-10-16T09:32:09.841Z,60.39
2018-10-16T09:33:09.838Z,61.17
2018-10-16T09:34:09.817Z,60.57
2018-10-16T09:35:09.857Z,60.47
2018-10-16T09:36:09.828Z,60.57
2018-10-16T09:37:09.801Z,60.74
2018-10-16T09:38:09.895Z,60.24
2018-10-16T09:39:09.766Z,60.24
2018-10-16T09:40:09.782Z,60.21
2018-10-16T09:41:09.801Z,59.23
2018-10-16T09:42:09.749Z,58.53
2018-10-16T09:43:09.722Z,58.93
2018-10-16T09:44:09.710Z,59.83
2018-10-16T09:45:09.699Z,59.23
2018-10-16T09:46:09.729Z,58.40
2018-10-16T09:47:09.725Z,59.41
2018-10-16T09:48:09.683Z,58.57
2018-10-16T09:49:09.656Z,58.87
2018-10-16T09:50:09.645Z,59.88
2018-10-16T09:51:09.639Z,59.08
2018-10-16T09:52:09.627Z,58.24
2018-10-16T09:53:09.654Z,58.94
2018-10-16T09:54:09.616Z,58.81
2018-10-16T09:55:09.585Z,58.01
2018-10-16T09:56:09.583Z,57.89
2018-10-16T09:57:09.574Z,57.28
2018-10-16T09:58:09.580Z,57.28
2018-10-16T09:59:09.593Z,56.65
2018-10-16T10:00:09.549Z,56.76
2018-10-16T10:01:09.539Z,56.56
2018-10-16T10:02:09.508Z,55.05
2018-10-16T10:03:09.508Z,55.63
2018-10-16T10:04:09.498Z,55.93
2018-10-16T10:05:09.513Z,55.02
2018-10-16T10:06:09.470Z,56.43
2018-10-16T10:07:09.479Z,56.23
2018-10-16T10:08:09.440Z,55.60
2018-10-16T10:09:09.443Z,56.10
2018-10-16T10:10:09.457Z,55.90
2018-10-16T10:11:09.466Z,55.40
2018-10-16T10:12:09.408Z,55.17
2018-10-16T10:13:09.395Z,54.87
2018-10-16T10:14:09.377Z,55.07
2018-10-16T10:15:09.367Z,56.17
2018-10-16T10:16:09.352Z,53.24
2018-10-16T10:17:09.383Z,53.94
2018-10-16T10:18:09.342Z,51.94
2018-10-16T10:19:09.338Z,52.34
2018-10-16T10:20:09.308Z,51.92
2018-10-16T10:21:09.308Z,52.92
2018-10-16T10:22:09.285Z,51.72
2018-10-16T10:23:09.328Z,51.89
2018-10-16T10:24:09.269Z,51.20
2018-10-16T10:25:09.336Z,51.50
2018-10-16T10:26:09.245Z,51.69
2018-10-16T10:27:09.256Z,51.27
2018-10-16T10:28:09.224Z,50.57
2018-10-16T10:29:09.265Z,49.57
2018-10-16T10:30:09.201Z,49.37
2018-10-16T10:31:09.203Z,49.37
2018-10-16T10:32:09.209Z,48.67
2018-10-16T10:33:09.168Z,47.67
2018-10-16T10:34:09.158Z,46.95
2018-10-16T10:35:09.217Z,47.85
2018-10-16T10:36:09.141Z,47.72
2018-10-16T10:37:09.127Z,46.83
2018-10-16T10:38:09.134Z,46.13
2018-10-16T10:39:09.115Z,45.93
2018-10-16T10:40:09.095Z,46.91
2018-10-16T10:41:09.129Z,45.71
2018-10-16T10:42:09.104Z,45.31
2018-10-16T10:43:09.061Z,45.71
2018-10-16T10:44:09.050Z,45.40
2018-10-16T10:45:09.047Z,44.41
2018-10-16T10:46:09.031Z,44.11
2018-10-16T10:47:09.051Z,44.51
2018-10-16T10:48:09.015Z,45.59
2018-10-16T10:49:08.995Z,43.81
2018-10-16T10:50:09.169Z,43.91
2018-10-16T10:51:09.386Z,44.81
2018-10-16T10:52:09.012Z,43.79
2018-10-16T10:53:08.989Z,44.29
2018-10-16T10:54:08.935Z,44.59
2018-10-16T10:55:08.939Z,44.59
2018-10-16T10:56:08.916Z,44.17
2018-10-16T10:57:09.023Z,43.97
2018-10-16T10:58:08.903Z,44.17
2018-10-16T10:59:08.927Z,43.87
2018-10-16T11:00:08.891Z,42.57
2018-10-16T11:01:08.859Z,41.75
2018-10-16T11:02:08.850Z,42.55
2018-10-16T11:03:08.943Z,41.75
2018-10-16T11:04:08.840Z,42.15
2018-10-16T11:05:08.864Z,42.83
2018-10-16T11:06:08.814Z,42.13
2018-10-16T11:07:08.825Z,42.33
2018-10-16T11:08:08.778Z,42.43
2018-10-16T11:09:08.836Z,41.74
2018-10-16T11:10:08.776Z,41.83
2018-10-16T11:11:08.792Z,42.23
2018-10-16T11:12:08.742Z,41.53
2018-10-16T11:13:08.742Z,40.94
2018-10-16T11:14:08.719Z,41.33
2018-10-16T11:15:08.789Z,40.82
2018-10-16T11:16:08.689Z,42.41
2018-10-16T11:17:08.727Z,40.92
2018-10-16T11:18:08.679Z,41.82
2018-10-16T11:19:08.663Z,39.72
2018-10-16T11:20:08.681Z,40.04
2018-10-16T11:21:08.703Z,39.03
2018-10-16T11:22:08.624Z,37.73
2018-10-16T11:23:08.661Z,39.23
2018-10-16T11:24:08.604Z,38.53
2018-10-16T11:25:08.638Z,38.63
2018-10-16T11:26:08.578Z,38.61
2018-10-16T11:27:08.584Z,39.12
2018-10-16T11:28:08.578Z,38.93
2018-10-16T11:29:08.592Z,39.01
2018-10-16T11:30:08.625Z,38.91
2018-10-16T11:31:08.524Z,38.61
2018-10-16T11:32:08.511Z,40.00
2018-10-16T11:33:08.586Z,38.61
2018-10-16T11:34:08.488Z,38.01
2018-10-16T11:35:08.513Z,38.61
2018-10-16T11:36:08.487Z,38.81
2018-10-16T11:37:08.567Z,39.18
2018-10-16T11:38:08.442Z,38.51
2018-10-16T11:39:08.481Z,38.61
2018-10-16T11:40:08.434Z,38.59
2018-10-16T11:41:08.451Z,38.89
2018-10-16T11:42:08.405Z,38.59
2018-10-16T11:43:08.395Z,39.39
2018-10-16T11:44:08.376Z,38.49
2018-10-16T11:45:08.455Z,38.29
2018-10-16T11:46:08.360Z,38.39
2018-10-16T11:47:08.405Z,37.40
2018-10-16T11:48:08.357Z,36.19
2018-10-16T11:49:08.326Z,37.68
2018-10-16T11:50:08.390Z,38.18
2018-10-16T11:51:08.307Z,37.88
2018-10-16T11:52:08.315Z,37.98
2018-10-16T11:53:08.322Z,37.77
2018-10-16T11:54:08.275Z,38.18
2018-10-16T11:55:08.297Z,37.96
2018-10-16T11:56:08.336Z,36.57
2018-10-16T11:57:08.239Z,37.58
2018-10-16T11:58:08.230Z,36.98
2018-10-16T11:59:08.313Z,37.18
2018-10-16T12:00:08.224Z,37.56
2018-10-16T12:01:08.196Z,37.76
2018-10-16T12:02:08.301Z,37.06
2018-10-16T12:03:08.185Z,36.35
2018-10-16T12:04:08.156Z,36.04
2018-10-16T12:05:08.346Z,35.62
2018-10-16T12:06:08.261Z,35.41
2018-10-16T12:07:08.197Z,35.69
2018-10-16T12:08:08.138Z,34.99
2018-10-16T12:09:08.107Z,33.87
2018-10-16T12:10:08.107Z,33.36
2018-10-16T12:11:08.189Z,34.25
2018-10-16T12:12:08.087Z,33.95
2018-10-16T12:13:08.145Z,34.25
2018-10-16T12:14:08.117Z,33.24
2018-10-16T12:15:08.041Z,32.34
2018-10-16T12:16:08.032Z,32.03
2018-10-16T12:17:08.055Z,32.21
2018-10-16T12:18:08.017Z,33.39
2018-10-16T12:19:08.121Z,34.13
2018-10-16T12:20:08.071Z,35.07
2018-10-16T12:21:08.002Z,35.80
2018-10-16T12:22:07.965Z,36.61
2018-10-16T12:23:08.016Z,36.32
2018-10-16T12:24:07.966Z,36.18
2018-10-16T12:25:08.086Z,34.48
2018-10-16T12:26:07.924Z,35.17
2018-10-16T12:27:08.007Z,34.55
2018-10-16T12:28:07.912Z,35.12
2018-10-16T12:29:07.960Z,34.23
2018-10-16T12:30:07.875Z,33.51
2018-10-16T12:31:07.889Z,32.80
2018-10-16T12:32:07.990Z,31.78
2018-10-16T12:33:07.913Z,31.56
2018-10-16T12:34:07.838Z,30.75
2018-10-16T12:35:07.895Z,30.15
2018-10-16T12:36:07.825Z,30.21
2018-10-16T12:37:07.884Z,29.71
2018-10-16T12:38:07.803Z,29.11
2018-10-16T12:39:07.827Z,29.49
2018-10-16T12:40:07.899Z,28.63
2018-10-16T12:41:07.823Z,29.52
2018-10-16T12:42:07.759Z,29.11
2018-10-16T12:43:07.750Z,28.42
2018-10-16T12:44:07.733Z,28.92
2018-10-16T12:45:07.755Z,28.42
2018-10-16T12:46:07.770Z,28.64
2018-10-16T12:47:07.777Z,29.02
2018-10-16T12:48:07.743Z,29.23
2018-10-16T12:49:07.724Z,29.93
2018-10-16T12:50:07.717Z,30.38
2018-10-16T12:51:07.711Z,30.85
2018-10-16T12:52:07.650Z,29.94